Terminal Aerodrome Forecast
Issued by NWS

Home | Current Version | Previous Version | Text Only | Print | Product List | Glossary On
Versions: 1 2 3 4 5 6 7 8 9 10 11 12 13 14 15 16 17
000
FTUS43 KAPX 300320 AAA
TAFAPN
TAF AMD
KAPN 300320Z 3003/3024 VRB03KT 5SM -SHRA BR SCT025 OVC100
     FM300900 29006KT 3SM -SHRA BR OVC008
     FM301400 34010G16KT P6SM -SHRA BKN022 OVC060
     FM301800 34012G17KT P6SM OVC100=

USA.gov is the U.S. government's official web portal to all federal, state and local government web resources and services.